createdAt,value
2022-11-22T00:03:58.361Z,6.42
2022-11-22T00:09:21.516Z,6.48
2022-11-22T00:14:44.760Z,6.58
2022-11-22T00:20:12.014Z,6.57
2022-11-22T00:25:35.324Z,6.58
2022-11-22T00:30:58.491Z,6.70
2022-11-22T00:36:24.578Z,6.62
2022-11-22T00:41:47.670Z,6.64
2022-11-22T00:47:11.895Z,6.66
2022-11-22T00:52:36.652Z,6.72
2022-11-22T00:57:59.833Z,6.89
2022-11-22T01:03:23.076Z,6.66
2022-11-22T01:08:48.292Z,6.71
2022-11-22T01:14:11.562Z,6.61
2022-11-22T01:19:34.679Z,6.61
2022-11-22T01:24:59.292Z,6.45
2022-11-22T01:30:22.597Z,6.56
2022-11-22T01:35:46.007Z,6.52
2022-11-22T01:41:10.498Z,6.69
2022-11-22T01:46:35.801Z,6.69
2022-11-22T01:52:01.788Z,6.70
2022-11-22T01:57:28.924Z,6.84
2022-11-22T02:02:54.490Z,6.78
2022-11-22T02:08:22.139Z,6.65
2022-11-22T02:13:46.719Z,6.69
2022-11-22T02:19:13.544Z,6.62
2022-11-22T02:24:41.564Z,6.50
2022-11-22T02:30:07.260Z,6.45
2022-11-22T02:35:31.347Z,6.28
2022-11-22T02:40:57.117Z,6.18
2022-11-22T02:46:23.585Z,6.13
2022-11-22T02:51:46.886Z,6.17
2022-11-22T02:57:10.013Z,6.07
2022-11-22T03:02:34.569Z,6.02
2022-11-22T03:07:57.687Z,5.93
2022-11-22T03:13:20.867Z,5.87
2022-11-22T03:18:45.418Z,5.87
2022-11-22T03:24:09.258Z,5.90
2022-11-22T03:29:32.661Z,5.78
2022-11-22T03:34:57.276Z,5.65
2022-11-22T03:40:21.151Z,5.62
2022-11-22T03:45:46.294Z,5.63
2022-11-22T03:51:10.885Z,5.58
2022-11-22T03:56:33.942Z,5.63
2022-11-22T04:01:57.210Z,5.55
2022-11-22T04:07:21.831Z,5.56
2022-11-22T04:12:45.007Z,5.46
2022-11-22T04:18:10.325Z,5.45
2022-11-22T04:23:34.916Z,5.39
2022-11-22T04:29:10.956Z,5.44
2022-11-22T04:34:34.315Z,5.49
2022-11-22T04:39:58.886Z,5.50
2022-11-22T04:45:22.189Z,5.41
2022-11-22T04:51:03.159Z,5.36
2022-11-22T04:56:27.665Z,5.16
2022-11-22T05:01:50.815Z,5.15
2022-11-22T05:07:13.994Z,5.11
2022-11-22T05:12:38.804Z,5.01
2022-11-22T05:18:01.881Z,5.05
2022-11-22T05:23:42.854Z,4.90
2022-11-22T05:29:08.802Z,4.79
2022-11-22T05:34:31.878Z,4.75
2022-11-22T05:39:55.038Z,4.74
2022-11-22T05:45:20.028Z,4.82
2022-11-22T05:50:43.203Z,4.77
2022-11-22T05:56:07.029Z,4.78
2022-11-22T06:01:31.692Z,4.72
2022-11-22T06:06:54.819Z,4.83
2022-11-22T06:12:17.972Z,4.73
2022-11-22T06:17:42.496Z,4.64
2022-11-22T06:23:05.644Z,4.63
2022-11-22T06:28:29.987Z,4.68
2022-11-22T06:33:56.202Z,4.57
2022-11-22T06:39:19.337Z,4.59
2022-11-22T06:44:42.502Z,4.50
2022-11-22T06:50:07.879Z,4.48
2022-11-22T06:55:49.564Z,4.52
2022-11-22T07:01:15.136Z,4.40
2022-11-22T07:06:40.416Z,4.42
2022-11-22T07:12:04.171Z,4.43
2022-11-22T07:17:27.332Z,4.61
2022-11-22T07:22:51.946Z,4.65
2022-11-22T07:28:15.985Z,4.82
2022-11-22T07:33:39.483Z,5.05
2022-11-22T07:39:04.519Z,5.18
2022-11-22T07:44:27.637Z,5.25
2022-11-22T07:49:50.946Z,5.19
2022-11-22T07:55:15.577Z,5.20
2022-11-22T08:00:38.803Z,5.32
2022-11-22T08:06:02.289Z,5.42
2022-11-22T08:11:26.789Z,5.27
2022-11-22T08:16:49.950Z,5.32
2022-11-22T08:22:13.150Z,5.58
2022-11-22T08:27:37.650Z,5.54
2022-11-22T08:33:00.812Z,5.54
2022-11-22T08:38:24.126Z,5.51
2022-11-22T08:43:50.410Z,5.66
2022-11-22T08:49:13.642Z,5.63
2022-11-22T08:54:38.131Z,5.81
2022-11-22T09:00:03.085Z,5.85
2022-11-22T09:05:26.605Z,5.89
2022-11-22T09:10:49.802Z,5.87
2022-11-22T09:16:15.931Z,5.92
2022-11-22T09:21:39.061Z,6.01
2022-11-22T09:27:02.293Z,6.11
2022-11-22T09:32:32.205Z,6.28
2022-11-22T09:37:56.789Z,6.27
2022-11-22T09:43:28.767Z,6.19
2022-11-22T09:49:11.422Z,6.34
2022-11-22T09:54:40.847Z,6.24
2022-11-22T10:00:07.668Z,6.23
2022-11-22T10:05:48.475Z,6.35
2022-11-22T10:11:16.789Z,6.57
2022-11-22T10:16:42.578Z,6.65
2022-11-22T10:22:11.614Z,6.52
2022-11-22T10:27:34.826Z,6.53
2022-11-22T10:33:04.391Z,6.50
2022-11-22T10:38:40.722Z,6.58
2022-11-22T10:44:13.648Z,6.70
2022-11-22T10:49:49.112Z,6.64
2022-11-22T10:55:24.708Z,6.96
2022-11-22T11:00:51.272Z,7.23
2022-11-22T11:06:29.428Z,7.20
2022-11-22T11:12:06.571Z,6.91
2022-11-22T11:17:31.384Z,7.02
2022-11-22T11:28:39.186Z,7.16
2022-11-22T11:34:16.875Z,7.15
2022-11-22T11:39:44.593Z,7.38
2022-11-22T11:45:28.187Z,7.31
2022-11-22T11:50:51.363Z,7.19
2022-11-22T11:56:22.676Z,7.07
2022-11-22T12:01:59.312Z,7.23
2022-11-22T12:07:25.297Z,7.18
2022-11-22T12:12:51.163Z,7.34
2022-11-22T12:18:29.884Z,7.65
2022-11-22T12:24:19.459Z,7.77
2022-11-22T12:29:43.767Z,7.71
2022-11-22T12:35:12.425Z,7.73
2022-11-22T12:40:41.372Z,7.58
2022-11-22T12:46:09.748Z,7.61
2022-11-22T12:51:38.530Z,7.87
2022-11-22T12:57:06.738Z,7.79
2022-11-22T13:02:33.328Z,7.75
2022-11-22T13:08:02.280Z,7.72
2022-11-22T13:13:28.562Z,7.61
2022-11-22T13:18:56.690Z,7.54
2022-11-22T13:24:29.178Z,7.51
2022-11-22T13:29:54.507Z,7.41
2022-11-22T13:35:25.270Z,7.48
2022-11-22T13:40:51.397Z,7.45
2022-11-22T13:46:51.808Z,7.63
2022-11-22T13:52:51.945Z,7.63
2022-11-22T13:58:50.719Z,7.78
2022-11-22T14:04:43.295Z,7.84
2022-11-22T14:10:27.710Z,7.83
2022-11-22T14:16:18.475Z,7.77
2022-11-22T14:21:50.592Z,7.68
2022-11-22T14:27:24.972Z,7.69
2022-11-22T14:33:02.890Z,7.58
2022-11-22T14:38:32.470Z,7.63
2022-11-22T14:44:00.104Z,7.78
2022-11-22T14:49:31.832Z,7.58
2022-11-22T14:54:58.588Z,7.59
2022-11-22T15:00:23.670Z,7.63
2022-11-22T15:09:21.983Z,7.58
2022-11-22T15:12:27.818Z,7.62
2022-11-22T15:58:13.983Z,7.46
2022-11-22T16:03:39.193Z,7.56
2022-11-22T16:09:06.369Z,7.58
2022-11-22T16:14:50.965Z,7.53
2022-11-22T16:20:35.307Z,7.50
2022-11-22T16:26:01.521Z,7.51
2022-11-22T16:31:26.449Z,7.52
2022-11-22T16:36:49.563Z,7.48
2022-11-22T16:42:14.157Z,7.52
2022-11-22T16:47:37.322Z,7.49
2022-11-22T16:53:02.888Z,7.61
2022-11-22T16:58:29.965Z,7.63
2022-11-22T17:03:54.939Z,7.57
2022-11-22T17:09:18.194Z,7.60
2022-11-22T17:14:49.800Z,7.61
2022-11-22T17:20:13.266Z,7.58
2022-11-22T17:25:36.441Z,7.57
2022-11-22T17:31:01.782Z,7.50
2022-11-22T17:36:27.861Z,7.61
2022-11-22T17:41:50.968Z,7.58
2022-11-22T17:47:15.475Z,7.51
2022-11-22T17:52:38.641Z,7.51
2022-11-22T17:58:01.799Z,7.55
2022-11-22T18:03:26.438Z,7.48
2022-11-22T18:08:49.969Z,7.50
2022-11-22T18:14:13.261Z,7.51
2022-11-22T18:19:37.944Z,7.67
2022-11-22T18:25:04.549Z,7.65
2022-11-22T18:30:27.685Z,7.71
2022-11-22T18:36:00.702Z,7.70
2022-11-22T18:41:23.888Z,7.85
2022-11-22T18:46:47.552Z,7.87
2022-11-22T18:52:15.034Z,7.86
2022-11-22T18:57:40.920Z,7.77
2022-11-22T19:03:06.070Z,7.94
2022-11-22T19:08:30.650Z,7.91
2022-11-22T19:13:54.046Z,8.07
2022-11-22T19:19:17.263Z,8.05
2022-11-22T19:24:46.021Z,8.31
2022-11-22T19:30:11.779Z,8.17
2022-11-22T19:35:37.114Z,8.29
2022-11-22T19:41:01.813Z,8.29
2022-11-22T19:46:25.110Z,8.43
2022-11-22T19:51:48.228Z,8.39
2022-11-22T19:57:12.830Z,8.49
2022-11-22T20:02:35.985Z,8.39
2022-11-22T20:07:59.723Z,8.38
2022-11-22T20:13:25.779Z,8.46
2022-11-22T20:18:49.418Z,8.69
2022-11-22T20:24:13.185Z,8.48
2022-11-22T20:29:37.690Z,8.59
2022-11-22T20:35:00.871Z,8.66
2022-11-22T20:40:24.065Z,8.75
2022-11-22T20:45:48.638Z,8.80
2022-11-22T20:51:13.756Z,8.54
2022-11-22T20:56:37.412Z,8.45
2022-11-22T21:02:05.114Z,8.62
2022-11-22T21:07:31.007Z,8.61
2022-11-22T21:12:54.180Z,8.47
2022-11-22T21:18:26.603Z,8.64
2022-11-22T21:23:50.146Z,8.71
2022-11-22T21:29:16.666Z,8.60
2022-11-22T21:34:41.427Z,8.59
2022-11-22T21:40:06.376Z,8.51
2022-11-22T21:45:29.513Z,8.38
2022-11-22T21:50:55.931Z,8.54
2022-11-22T21:56:19.130Z,8.33
2022-11-22T22:01:42.343Z,8.44
2022-11-22T22:07:12.054Z,8.42
2022-11-22T22:12:47.019Z,8.51
2022-11-22T22:18:10.135Z,8.64
2022-11-22T22:23:35.263Z,8.56
2022-11-22T22:28:58.456Z,8.49
2022-11-22T22:34:21.573Z,8.60
2022-11-22T22:39:46.133Z,8.61
2022-11-22T22:45:10.939Z,8.65
2022-11-22T22:50:35.197Z,8.60
2022-11-22T22:55:59.709Z,8.60
2022-11-22T23:01:24.319Z,8.66
2022-11-22T23:06:47.678Z,8.70
2022-11-22T23:12:12.149Z,8.63
2022-11-22T23:17:35.351Z,8.53
2022-11-22T23:22:59.556Z,8.55
2022-11-22T23:28:24.017Z,8.61
2022-11-22T23:33:47.143Z,8.77
2022-11-22T23:39:10.569Z,8.64
2022-11-22T23:44:35.195Z,8.57
2022-11-22T23:49:58.264Z,8.54
2022-11-22T23:55:21.427Z,8.56
